MET'MAP v2.0
soon released !

Expected late october,
this new version will be
more efficient, smarter,
and hosted on a brand new
server x3 powerfull...
...and still free !


Not compatible ?
Try the mobile version !

LOG IN : | Subscribe | Disclaimer | Who is Orbifly ? |
ICAO code :

TAF - EDHI Hamburg Finkenwerder - 01 Apr 2020 20:08 UTC - Data Source NOAA   


- Airport Elevation : 23 ft
- IATA code : XFW
- No reported NOTAMs.


EDHI - Hamburg Finkenwerder

Latest METAR recorded : 2015/08/11 07:50 EDHI 110750Z VRB02KT 9999 FEW009 BKN033 19/18 Q1017
TAF TAF EDHI
Valid from the 01 at 18:00 until the 01 at 21:00 UTC


011700Z 0118/0121 27008KT 9999 BKN040

Source NOAA


MET'MAP, your aeronautical weather chart ! - Copyright ORBIFLY December 2007

Programming & Development : Alexandra Zaïnal
Co-Developer : Marc-Olivier Méhu
Technical & hardware support : Manuel Goepfert
Concept & Financing : Baudouin d'Aumeries